createdAt,value
2023-02-11T00:00:07.808Z,6.81
2023-02-11T00:01:40.210Z,6.82
2023-02-11T00:03:12.307Z,6.81
2023-02-11T00:04:44.529Z,6.80
2023-02-11T00:06:17.055Z,6.79
2023-02-11T00:07:49.093Z,6.79
2023-02-11T00:09:21.258Z,6.78
2023-02-11T00:10:58.085Z,6.75
2023-02-11T00:12:30.701Z,6.74
2023-02-11T00:14:08.566Z,6.72
2023-02-11T00:15:41.880Z,6.71
2023-02-11T00:17:14.202Z,6.70
2023-02-11T00:18:46.881Z,6.67
2023-02-11T00:20:19.034Z,6.65
2023-02-11T00:21:51.466Z,6.64
2023-02-11T00:23:25.892Z,6.63
2023-02-11T00:25:01.216Z,6.62
2023-02-11T00:26:35.611Z,6.61
2023-02-11T00:28:08.569Z,6.61
2023-02-11T00:29:43.588Z,6.62
2023-02-11T00:31:17.665Z,6.59
2023-02-11T00:32:50.036Z,6.57
2023-02-11T00:34:32.043Z,6.57
2023-02-11T00:36:07.105Z,6.54
2023-02-11T00:37:39.419Z,6.54
2023-02-11T00:39:11.896Z,6.55
2023-02-11T00:40:44.174Z,6.55
2023-02-11T00:42:16.464Z,6.54
2023-02-11T00:43:50.529Z,6.53
2023-02-11T00:45:24.367Z,6.55
2023-02-11T00:46:56.574Z,6.54
2023-02-11T00:48:35.439Z,6.55
2023-02-11T00:50:11.574Z,6.55
2023-02-11T00:51:58.299Z,6.56
2023-02-11T00:53:31.323Z,6.55
2023-02-11T00:55:03.531Z,6.57
2023-02-11T00:56:37.218Z,6.53
2023-02-11T00:58:09.352Z,6.53
2023-02-11T00:59:41.609Z,6.51
2023-02-11T01:01:14.144Z,6.55
2023-02-11T01:02:53.113Z,6.55
2023-02-11T01:04:25.174Z,6.57
2023-02-11T01:06:04.042Z,6.57
2023-02-11T01:07:37.607Z,6.57
2023-02-11T01:09:09.728Z,6.58
2023-02-11T01:10:41.917Z,6.58
2023-02-11T01:12:15.333Z,6.59
2023-02-11T01:13:50.337Z,6.59
2023-02-11T01:15:22.910Z,6.59
2023-02-11T01:16:55.438Z,6.63
2023-02-11T01:18:30.637Z,6.60
2023-02-11T01:20:10.679Z,6.61
2023-02-11T01:21:42.949Z,6.61
2023-02-11T01:23:15.352Z,6.63
2023-02-11T01:24:49.313Z,6.61
2023-02-11T01:26:21.470Z,6.63
2023-02-11T01:27:53.541Z,6.62
2023-02-11T01:29:26.187Z,6.62
2023-02-11T01:31:01.287Z,6.61
2023-02-11T01:32:34.371Z,6.61
2023-02-11T01:34:07.354Z,6.60
2023-02-11T01:35:42.265Z,6.60
2023-02-11T01:37:14.526Z,6.60
2023-02-11T01:38:46.585Z,6.59
2023-02-11T01:40:19.089Z,6.61
2023-02-11T01:41:51.487Z,6.60
2023-02-11T01:43:24.876Z,6.58
2023-02-11T01:44:58.172Z,6.62
2023-02-11T01:46:38.428Z,6.62
2023-02-11T01:48:15.403Z,6.61
2023-02-11T01:49:58.435Z,6.61
2023-02-11T01:51:40.931Z,6.59
2023-02-11T01:53:31.650Z,6.61
2023-02-11T01:55:25.384Z,6.61
2023-02-11T01:57:18.064Z,6.59
2023-02-11T01:58:52.261Z,6.58
2023-02-11T02:00:39.440Z,6.58
2023-02-11T02:02:13.344Z,6.56
2023-02-11T02:03:46.885Z,6.55
2023-02-11T02:05:27.732Z,6.55
2023-02-11T02:07:04.483Z,6.53
2023-02-11T02:08:53.047Z,6.51
2023-02-11T02:10:27.019Z,6.50
2023-02-11T02:11:59.179Z,6.48
2023-02-11T02:13:32.786Z,6.49
2023-02-11T02:15:21.292Z,6.47
2023-02-11T02:16:55.666Z,6.48
2023-02-11T02:18:40.708Z,6.47
2023-02-11T02:20:17.977Z,6.45
2023-02-11T02:22:28.562Z,6.45
2023-02-11T02:24:25.347Z,6.46
2023-02-11T02:26:20.061Z,6.45
2023-02-11T02:28:10.936Z,6.44
2023-02-11T02:30:01.567Z,6.45
2023-02-11T02:31:58.846Z,6.43
2023-02-11T02:34:01.726Z,6.44
2023-02-11T02:35:47.506Z,6.42
2023-02-11T02:37:33.491Z,6.40
2023-02-11T02:39:12.711Z,6.41
2023-02-11T02:40:46.489Z,6.41
2023-02-11T02:42:19.234Z,6.40
2023-02-11T02:43:52.343Z,6.40
2023-02-11T02:45:24.711Z,6.40
2023-02-11T02:47:00.075Z,6.40
2023-02-11T02:48:40.523Z,6.42
2023-02-11T02:50:21.214Z,6.44
2023-02-11T02:52:23.825Z,6.44
2023-02-11T02:54:44.098Z,6.44
2023-02-11T02:56:45.247Z,6.42
2023-02-11T02:58:25.646Z,6.40
2023-02-11T03:00:12.360Z,6.40
2023-02-11T03:02:11.957Z,6.41
2023-02-11T03:04:07.629Z,6.41
2023-02-11T03:05:55.929Z,6.39
2023-02-11T03:07:42.836Z,6.39
2023-02-11T03:09:26.725Z,6.37
2023-02-11T03:11:00.056Z,6.38
2023-02-11T03:12:33.701Z,6.36
2023-02-11T03:14:11.220Z,6.38
2023-02-11T03:15:46.254Z,6.37
2023-02-11T03:17:18.914Z,6.39
2023-02-11T03:18:59.978Z,6.40
2023-02-11T03:20:37.230Z,6.40
2023-02-11T03:22:16.471Z,6.39
2023-02-11T03:23:57.591Z,6.40
2023-02-11T03:25:37.882Z,6.40
2023-02-11T03:27:16.804Z,6.40
2023-02-11T03:28:55.063Z,6.42
2023-02-11T03:30:33.368Z,6.43
2023-02-11T03:32:16.496Z,6.43
2023-02-11T03:33:51.560Z,6.43
2023-02-11T03:35:34.979Z,6.41
2023-02-11T03:37:25.549Z,6.44
2023-02-11T03:38:58.989Z,6.42
2023-02-11T03:40:33.526Z,6.42
2023-02-11T03:42:07.732Z,6.41
2023-02-11T03:43:52.003Z,6.42
2023-02-11T03:45:25.708Z,6.41
2023-02-11T03:46:58.159Z,6.42
2023-02-11T03:48:53.216Z,6.46
2023-02-11T03:50:26.941Z,6.44
2023-02-11T03:52:01.582Z,6.46
2023-02-11T03:53:34.348Z,6.46
2023-02-11T03:55:11.835Z,6.47
2023-02-11T03:56:56.672Z,6.46
2023-02-11T03:58:28.721Z,6.44
2023-02-11T04:00:01.077Z,6.43
2023-02-11T04:01:43.701Z,6.41
2023-02-11T04:03:15.917Z,6.37
2023-02-11T04:04:48.141Z,6.36
2023-02-11T04:06:20.322Z,6.33
2023-02-11T04:07:52.467Z,6.32
2023-02-11T04:09:24.531Z,6.31
2023-02-11T04:10:56.653Z,6.28
2023-02-11T04:12:29.420Z,6.28
2023-02-11T04:14:01.568Z,6.26
2023-02-11T04:15:33.677Z,6.22
2023-02-11T04:17:06.040Z,6.22
2023-02-11T04:18:38.127Z,6.21
2023-02-11T04:20:10.882Z,6.18
2023-02-11T04:21:43.056Z,6.19
2023-02-11T04:23:15.126Z,6.19
2023-02-11T04:24:47.248Z,6.19
2023-02-11T04:26:19.400Z,6.16
2023-02-11T04:27:51.551Z,6.17
2023-02-11T04:29:23.736Z,6.19
2023-02-11T04:30:56.393Z,6.18
2023-02-11T04:32:28.607Z,6.19
2023-02-11T04:34:00.948Z,6.19
2023-02-11T04:35:33.097Z,6.20
2023-02-11T04:37:05.454Z,6.20
2023-02-11T04:38:37.633Z,6.21
2023-02-11T04:40:10.405Z,6.21
2023-02-11T04:41:42.603Z,6.24
2023-02-11T04:43:15.126Z,6.25
2023-02-11T04:44:47.392Z,6.24
2023-02-11T04:46:19.590Z,6.24
2023-02-11T04:47:51.751Z,6.23
2023-02-11T04:49:23.873Z,6.24
2023-02-11T04:50:55.962Z,6.26
2023-02-11T04:52:28.033Z,6.29
2023-02-11T04:54:00.479Z,6.29
2023-02-11T04:55:32.720Z,6.30
2023-02-11T04:57:08.102Z,6.29
2023-02-11T04:58:40.286Z,6.29
2023-02-11T05:00:13.032Z,6.33
2023-02-11T05:01:45.246Z,6.32
2023-02-11T05:03:17.684Z,6.32
2023-02-11T05:04:49.889Z,6.35
2023-02-11T05:06:22.095Z,6.36
2023-02-11T05:07:54.369Z,6.36
2023-02-11T05:09:26.610Z,6.36
2023-02-11T05:10:59.076Z,6.36
2023-02-11T05:12:31.251Z,6.38
2023-02-11T05:14:06.234Z,6.38
2023-02-11T05:15:41.571Z,6.40
2023-02-11T05:17:15.190Z,6.38
2023-02-11T05:18:47.456Z,6.40
2023-02-11T05:20:20.947Z,6.40
2023-02-11T05:22:02.553Z,6.39
2023-02-11T05:23:38.799Z,6.40
2023-02-11T05:25:14.394Z,6.41
2023-02-11T05:26:46.459Z,6.44
2023-02-11T05:28:18.663Z,6.40
2023-02-11T05:29:50.876Z,6.40
2023-02-11T05:31:22.926Z,6.39
2023-02-11T05:32:55.089Z,6.40
2023-02-11T05:34:27.298Z,6.40
2023-02-11T05:36:12.629Z,6.41
2023-02-11T05:37:44.825Z,6.41
2023-02-11T05:39:16.876Z,6.43
2023-02-11T05:40:49.131Z,6.43
2023-02-11T05:42:21.511Z,6.42
2023-02-11T05:43:53.661Z,6.43
2023-02-11T05:45:25.696Z,6.44
2023-02-11T05:46:57.880Z,6.44
2023-02-11T05:48:30.247Z,6.44
2023-02-11T05:50:02.408Z,6.45
2023-02-11T05:51:37.326Z,6.46
2023-02-11T05:53:09.468Z,6.47
2023-02-11T05:54:41.882Z,6.45
2023-02-11T05:56:14.829Z,6.46
2023-02-11T05:57:46.800Z,6.49
2023-02-11T05:59:19.075Z,6.47
2023-02-11T06:00:51.220Z,6.46
2023-02-11T06:02:23.586Z,6.47
2023-02-11T06:03:55.718Z,6.48
2023-02-11T06:05:31.307Z,6.48
2023-02-11T06:07:04.060Z,6.48
2023-02-11T06:08:39.055Z,6.49
2023-02-11T06:10:13.033Z,6.49
2023-02-11T06:11:45.267Z,6.49
2023-02-11T06:13:18.963Z,6.49
2023-02-11T06:14:51.178Z,6.49
2023-02-11T06:16:23.346Z,6.49
2023-02-11T06:17:55.498Z,6.50
2023-02-11T06:19:27.709Z,6.50
2023-02-11T06:21:00.293Z,6.52
2023-02-11T06:22:32.516Z,6.53
2023-02-11T06:24:07.313Z,6.55
2023-02-11T06:25:39.627Z,6.55
2023-02-11T06:27:11.916Z,6.54
2023-02-11T06:28:44.222Z,6.53
2023-02-11T06:30:16.434Z,6.54
2023-02-11T06:31:48.796Z,6.56
2023-02-11T06:33:21.162Z,6.56
2023-02-11T06:34:53.408Z,6.56
2023-02-11T06:36:25.958Z,6.56
2023-02-11T06:37:58.382Z,6.55
2023-02-11T06:39:33.159Z,6.56
2023-02-11T06:41:05.649Z,6.56
2023-02-11T06:42:39.464Z,6.56
2023-02-11T06:44:11.814Z,6.57
2023-02-11T06:45:44.180Z,6.57
2023-02-11T06:47:16.432Z,6.59
2023-02-11T06:48:52.651Z,6.60
2023-02-11T06:50:28.137Z,6.59
2023-02-11T06:52:00.405Z,6.60
2023-02-11T06:53:35.938Z,6.59
2023-02-11T06:55:10.565Z,6.61
2023-02-11T06:56:44.725Z,6.60
2023-02-11T06:58:17.152Z,6.62
2023-02-11T06:59:51.448Z,6.60
2023-02-11T07:01:27.095Z,6.60
2023-02-11T07:02:59.639Z,6.60
2023-02-11T07:04:32.076Z,6.61
2023-02-11T07:06:08.555Z,6.60
2023-02-11T07:07:43.514Z,6.61
2023-02-11T07:09:18.133Z,6.60
2023-02-11T07:10:50.295Z,6.62
2023-02-11T07:12:22.448Z,6.62
2023-02-11T07:13:56.940Z,6.63
2023-02-11T07:15:29.224Z,6.63
2023-02-11T07:17:05.082Z,6.64
2023-02-11T07:18:37.670Z,6.64
2023-02-11T07:20:12.755Z,6.66
2023-02-11T07:21:45.147Z,6.67
2023-02-11T07:23:17.613Z,6.66
2023-02-11T07:24:50.179Z,6.67
2023-02-11T07:26:24.392Z,6.69
2023-02-11T07:27:56.893Z,6.69
2023-02-11T07:29:32.670Z,6.70
2023-02-11T07:31:14.469Z,6.68
2023-02-11T07:32:46.774Z,6.70
2023-02-11T07:34:21.156Z,6.70
2023-02-11T07:35:53.537Z,6.69
2023-02-11T07:37:25.998Z,6.71
2023-02-11T07:38:58.467Z,6.72
2023-02-11T07:40:31.865Z,6.74
2023-02-11T07:42:04.646Z,6.72
2023-02-11T07:43:37.609Z,6.72
2023-02-11T07:45:12.941Z,6.75
2023-02-11T07:46:45.879Z,6.74
2023-02-11T07:48:20.488Z,6.74
2023-02-11T07:49:56.161Z,6.75
2023-02-11T07:51:30.223Z,6.76
2023-02-11T07:53:03.608Z,6.76
2023-02-11T07:54:36.483Z,6.79
2023-02-11T07:56:10.128Z,6.78
2023-02-11T07:57:45.763Z,6.76
2023-02-11T07:59:17.884Z,6.78
2023-02-11T08:00:50.172Z,6.81
2023-02-11T08:02:22.411Z,6.82
2023-02-11T08:03:59.083Z,6.84
2023-02-11T08:05:31.331Z,6.85
2023-02-11T08:07:26.430Z,6.86
2023-02-11T08:08:59.314Z,6.85
2023-02-11T08:10:31.397Z,6.89
2023-02-11T08:12:04.003Z,6.87
2023-02-11T08:13:45.748Z,6.87
2023-02-11T08:15:32.339Z,6.87
2023-02-11T08:17:05.120Z,6.90
2023-02-11T08:18:39.906Z,6.92
2023-02-11T08:20:12.395Z,6.93
2023-02-11T08:21:45.068Z,6.95
2023-02-11T08:23:19.752Z,6.96
2023-02-11T08:24:57.409Z,6.99
2023-02-11T08:26:41.542Z,6.99
2023-02-11T08:28:18.204Z,7.00
2023-02-11T08:29:50.568Z,7.02
2023-02-11T08:31:23.862Z,7.04
2023-02-11T08:32:56.875Z,7.03
2023-02-11T08:34:29.189Z,7.04
2023-02-11T08:36:02.142Z,7.06
2023-02-11T08:37:38.597Z,7.05
2023-02-11T08:39:21.770Z,7.06
2023-02-11T08:40:53.992Z,7.07
2023-02-11T08:42:26.413Z,7.07
2023-02-11T08:43:59.043Z,7.10
2023-02-11T08:45:31.777Z,7.13
2023-02-11T08:47:04.124Z,7.13
2023-02-11T08:48:36.448Z,7.14
2023-02-11T08:50:16.532Z,7.14
2023-02-11T08:52:08.068Z,7.13
2023-02-11T08:53:40.518Z,7.14
2023-02-11T08:55:12.849Z,7.16
2023-02-11T08:56:46.584Z,7.16
2023-02-11T08:58:23.834Z,7.19
2023-02-11T08:59:56.167Z,7.18
2023-02-11T09:01:37.003Z,7.17
2023-02-11T09:03:15.901Z,7.20
2023-02-11T09:04:48.481Z,7.20
2023-02-11T09:06:23.970Z,7.21
2023-02-11T09:08:02.323Z,7.21
2023-02-11T09:09:43.226Z,7.23
2023-02-11T09:11:16.019Z,7.26
2023-02-11T09:14:39.368Z,7.28
2023-02-11T09:17:27.321Z,7.28
2023-02-11T09:19:23.753Z,7.27
2023-02-11T09:21:15.897Z,7.30
2023-02-11T09:22:52.915Z,7.31
2023-02-11T09:24:36.557Z,7.33
2023-02-11T09:26:36.404Z,7.35
2023-02-11T09:28:11.960Z,7.33
2023-02-11T09:29:44.184Z,7.38
2023-02-11T09:31:19.775Z,7.36
2023-02-11T09:32:52.221Z,7.35
2023-02-11T09:34:27.579Z,7.34
2023-02-11T09:36:04.507Z,7.36
2023-02-11T09:37:38.669Z,7.38
2023-02-11T09:39:17.329Z,7.38
2023-02-11T09:40:49.852Z,7.39
2023-02-11T09:42:43.679Z,7.42
2023-02-11T09:44:28.592Z,7.41
2023-02-11T09:46:09.696Z,7.42
2023-02-11T09:48:23.348Z,7.46
2023-02-11T09:50:15.423Z,7.45
2023-02-11T09:52:01.764Z,7.45
2023-02-11T09:54:30.965Z,7.46
2023-02-11T09:56:30.052Z,7.46
2023-02-11T09:58:27.574Z,7.48
2023-02-11T10:00:25.682Z,7.48
2023-02-11T10:03:08.916Z,7.51
2023-02-11T10:05:20.198Z,7.50
2023-02-11T10:07:22.190Z,7.54
2023-02-11T10:09:15.271Z,7.55
2023-02-11T10:11:07.216Z,7.59
2023-02-11T10:13:22.147Z,7.59
2023-02-11T10:15:17.500Z,7.61
2023-02-11T10:17:11.123Z,7.67
2023-02-11T10:19:11.607Z,7.68
2023-02-11T10:23:45.906Z,7.71
2023-02-11T10:25:38.319Z,7.74
2023-02-11T10:33:05.783Z,7.79
2023-02-11T10:43:37.315Z,7.86
2023-02-11T10:46:31.881Z,7.79
2023-02-11T10:53:48.544Z,7.92
2023-02-11T10:56:32.041Z,7.96
2023-02-11T11:03:05.036Z,8.02
2023-02-11T11:07:36.089Z,8.05
2023-02-11T11:10:20.813Z,8.08
2023-02-11T11:12:42.379Z,8.07
2023-02-11T11:15:17.498Z,8.06
2023-02-11T11:16:36.272Z,8.06
2023-02-11T11:18:22.444Z,8.05
2023-02-11T11:30:13.915Z,8.15
2023-02-11T11:34:35.705Z,8.22
2023-02-11T11:36:25.780Z,8.21
2023-02-11T11:42:07.697Z,8.32
2023-02-11T11:44:05.471Z,8.31
2023-02-11T11:46:25.774Z,8.31
2023-02-11T11:48:10.459Z,8.35
2023-02-11T11:50:31.829Z,8.38
2023-02-11T11:52:49.690Z,8.40
2023-02-11T11:54:30.513Z,8.40
2023-02-11T11:56:10.670Z,8.42
2023-02-11T11:57:45.579Z,8.42
2023-02-11T11:59:18.097Z,8.43
2023-02-11T12:01:24.569Z,8.46
2023-02-11T12:03:15.566Z,8.45
2023-02-11T12:05:20.735Z,8.47
2023-02-11T12:07:36.120Z,8.49
2023-02-11T12:09:33.838Z,8.52
2023-02-11T12:18:21.896Z,8.56
2023-02-11T12:20:34.761Z,8.58
2023-02-11T12:22:48.738Z,8.59
2023-02-11T12:25:03.055Z,8.58
2023-02-11T12:26:55.906Z,8.55
2023-02-11T12:29:05.281Z,8.58
2023-02-11T12:32:07.114Z,8.60
2023-02-11T12:33:53.026Z,8.58
2023-02-11T12:35:33.936Z,8.60
2023-02-11T12:37:47.541Z,8.61
2023-02-11T12:40:08.376Z,8.64
2023-02-11T12:45:26.170Z,8.74
2023-02-11T12:47:50.252Z,8.74
2023-02-11T12:53:24.567Z,8.86
2023-02-11T13:03:03.086Z,8.98
2023-02-11T13:06:35.158Z,9.02
2023-02-11T13:08:14.814Z,9.13
2023-02-11T13:13:34.070Z,9.14
2023-02-11T13:15:14.303Z,9.20
2023-02-11T13:44:00.426Z,9.89
2023-02-11T14:53:00.231Z,9.76
2023-02-11T15:02:54.981Z,9.75
2023-02-11T15:03:14.198Z,9.72
2023-02-11T15:05:00.372Z,9.73
2023-02-11T15:10:02.688Z,9.71
2023-02-11T15:12:19.160Z,9.70
2023-02-11T15:14:09.363Z,9.68
2023-02-11T15:15:44.306Z,9.67
2023-02-11T15:17:18.501Z,9.70
2023-02-11T15:19:03.767Z,9.68
2023-02-11T15:20:36.217Z,9.68
2023-02-11T15:22:25.983Z,9.67
2023-02-11T15:24:11.041Z,9.67
2023-02-11T15:25:53.156Z,9.68
2023-02-11T15:27:28.034Z,9.68
2023-02-11T15:29:02.272Z,9.69
2023-02-11T15:30:35.372Z,9.70
2023-02-11T15:32:18.128Z,9.72
2023-02-11T15:34:07.807Z,9.69
2023-02-11T15:35:41.348Z,9.70
2023-02-11T15:37:27.480Z,9.69
2023-02-11T15:39:34.622Z,9.66
2023-02-11T15:41:07.804Z,9.63
2023-02-11T15:42:52.198Z,9.64
2023-02-11T15:44:34.191Z,9.66
2023-02-11T15:46:11.353Z,9.64
2023-02-11T15:47:51.496Z,9.64
2023-02-11T15:49:25.086Z,9.63
2023-02-11T15:50:59.511Z,9.64
2023-02-11T15:52:33.046Z,9.63
2023-02-11T15:54:23.029Z,9.64
2023-02-11T15:56:24.464Z,9.65
2023-02-11T15:58:00.082Z,9.65
2023-02-11T15:59:40.722Z,9.63
2023-02-11T16:01:14.468Z,9.61
2023-02-11T16:02:47.055Z,9.61
2023-02-11T16:04:22.239Z,9.61
2023-02-11T16:05:56.826Z,9.64
2023-02-11T16:07:45.651Z,9.65
2023-02-11T16:09:17.696Z,9.64
2023-02-11T16:11:02.919Z,9.63
2023-02-11T16:12:38.367Z,9.61
2023-02-11T16:14:27.554Z,9.58
2023-02-11T16:16:22.171Z,9.59
2023-02-11T16:17:54.860Z,9.54
2023-02-11T16:19:28.148Z,9.52
2023-02-11T16:21:01.737Z,9.52
2023-02-11T16:22:38.348Z,9.50
2023-02-11T16:24:22.762Z,9.54
2023-02-11T16:25:59.938Z,9.51
2023-02-11T16:27:38.719Z,9.47
2023-02-11T16:29:17.155Z,9.46
2023-02-11T16:30:53.645Z,9.41
2023-02-11T16:32:28.159Z,9.41
2023-02-11T16:34:00.384Z,9.39
2023-02-11T16:35:33.082Z,9.40
2023-02-11T16:37:06.176Z,9.38
2023-02-11T16:38:39.239Z,9.40
2023-02-11T16:40:12.896Z,9.38
2023-02-11T16:41:45.385Z,9.36
2023-02-11T16:43:22.170Z,9.36
2023-02-11T16:44:54.415Z,9.32
2023-02-11T16:46:28.966Z,9.31
2023-02-11T16:48:02.570Z,9.30
2023-02-11T16:49:42.010Z,9.29
2023-02-11T16:51:14.368Z,9.27
2023-02-11T16:52:49.042Z,9.27
2023-02-11T16:54:21.339Z,9.26
2023-02-11T16:55:56.151Z,9.28
2023-02-11T16:57:30.337Z,9.26
2023-02-11T16:59:02.958Z,9.25
2023-02-11T17:00:36.642Z,9.24
2023-02-11T17:02:24.489Z,9.23
2023-02-11T17:03:56.694Z,9.21
2023-02-11T17:05:28.860Z,9.21
2023-02-11T17:07:01.115Z,9.20
2023-02-11T17:08:35.874Z,9.21
2023-02-11T17:10:19.928Z,9.20
2023-02-11T17:11:56.986Z,9.18
2023-02-11T17:13:41.957Z,9.18
2023-02-11T17:15:14.383Z,9.17
2023-02-11T17:16:50.069Z,9.15
2023-02-11T17:18:22.440Z,9.15
2023-02-11T17:19:57.772Z,9.15
2023-02-11T17:21:34.592Z,9.15
2023-02-11T17:23:07.021Z,9.12
2023-02-11T17:24:40.859Z,9.12
2023-02-11T17:26:13.702Z,9.10
2023-02-11T17:27:46.085Z,9.13
2023-02-11T17:29:23.959Z,9.12
2023-02-11T17:30:56.352Z,9.09
2023-02-11T17:32:30.009Z,9.09
2023-02-11T17:34:04.839Z,9.09
2023-02-11T17:35:41.815Z,9.09
2023-02-11T17:37:14.414Z,9.07
2023-02-11T17:38:49.166Z,9.06
2023-02-11T17:42:29.735Z,9.06
2023-02-11T17:44:01.625Z,9.05
2023-02-11T17:45:46.911Z,9.05
2023-02-11T17:47:16.188Z,9.05
2023-02-11T17:48:48.499Z,9.04
2023-02-11T17:50:48.159Z,9.03
2023-02-11T17:54:03.322Z,9.01
2023-02-11T17:55:13.115Z,8.99
2023-02-11T17:56:55.198Z,9.00
2023-02-11T17:58:33.767Z,9.00
2023-02-11T18:00:18.860Z,9.00
2023-02-11T18:02:03.754Z,8.97
2023-02-11T18:03:39.020Z,8.97
2023-02-11T18:05:25.178Z,8.98
2023-02-11T18:07:53.456Z,8.97
2023-02-11T18:09:27.957Z,8.98
2023-02-11T18:11:32.422Z,8.99
2023-02-11T18:13:32.570Z,9.01
2023-02-11T18:15:40.149Z,8.98
2023-02-11T18:17:31.306Z,8.96
2023-02-11T18:19:21.183Z,8.92
2023-02-11T18:21:41.151Z,8.94
2023-02-11T18:23:36.096Z,8.92
2023-02-11T18:25:27.658Z,8.91
2023-02-11T18:35:31.603Z,8.84
2023-02-11T18:38:18.313Z,8.83
2023-02-11T18:53:24.976Z,8.78
2023-02-11T19:36:24.053Z,8.62
2023-02-11T19:41:36.060Z,8.63
2023-02-11T19:45:20.215Z,8.62
2023-02-11T19:47:30.194Z,8.61
2023-02-11T19:49:07.677Z,8.61
2023-02-11T19:57:25.202Z,8.62
2023-02-11T19:59:11.019Z,8.61
2023-02-11T20:05:23.974Z,8.60
2023-02-11T20:07:06.336Z,8.61
2023-02-11T20:09:45.743Z,8.64
2023-02-11T20:11:38.596Z,8.60
2023-02-11T20:13:22.730Z,8.59
2023-02-11T20:17:08.088Z,8.59
2023-02-11T20:18:40.739Z,8.60
2023-02-11T20:20:13.213Z,8.60
2023-02-11T20:21:53.141Z,8.59
2023-02-11T20:23:41.071Z,8.56
2023-02-11T20:25:29.666Z,8.58
2023-02-11T20:27:08.577Z,8.56
2023-02-11T20:28:41.931Z,8.52
2023-02-11T20:30:14.661Z,8.52
2023-02-11T20:31:54.792Z,8.51
2023-02-11T20:33:30.079Z,8.50
2023-02-11T20:35:02.921Z,8.53
2023-02-11T20:36:37.884Z,8.55
2023-02-11T20:38:09.806Z,8.54
2023-02-11T20:39:45.015Z,8.53
2023-02-11T20:41:23.630Z,8.53
2023-02-11T20:42:56.936Z,8.54
2023-02-11T20:44:29.133Z,8.55
2023-02-11T20:46:05.259Z,8.56
2023-02-11T20:47:38.406Z,8.56
2023-02-11T20:49:14.468Z,8.54
2023-02-11T20:50:48.737Z,8.53
2023-02-11T20:52:20.787Z,8.54
2023-02-11T20:53:53.477Z,8.54
2023-02-11T20:55:25.534Z,8.58
2023-02-11T20:56:58.466Z,8.60
2023-02-11T20:58:30.379Z,8.63
2023-02-11T21:00:03.320Z,8.62
2023-02-11T21:01:36.144Z,8.61
2023-02-11T21:03:10.974Z,8.57
2023-02-11T21:04:42.883Z,8.59
2023-02-11T21:06:14.927Z,8.61
2023-02-11T21:07:47.017Z,8.60
2023-02-11T21:09:22.123Z,8.63
2023-02-11T21:10:57.480Z,8.67
2023-02-11T21:12:38.120Z,8.70
2023-02-11T21:14:10.465Z,8.70
2023-02-11T21:15:42.558Z,8.69
2023-02-11T21:17:14.463Z,8.71
2023-02-11T21:18:47.472Z,8.72
2023-02-11T21:20:19.504Z,8.67
2023-02-11T21:21:51.617Z,8.68
2023-02-11T21:23:24.145Z,8.69
2023-02-11T21:24:56.104Z,8.66
2023-02-11T21:26:28.167Z,8.66
2023-02-11T21:28:00.275Z,8.62
2023-02-11T21:29:34.042Z,8.62
2023-02-11T21:31:09.060Z,8.62
2023-02-11T21:32:47.786Z,8.60
2023-02-11T21:34:22.288Z,8.61
2023-02-11T21:36:25.688Z,8.62
2023-02-11T21:38:03.267Z,8.64
2023-02-11T21:39:40.091Z,8.65
2023-02-11T21:41:31.255Z,8.68
2023-02-11T21:43:09.759Z,8.68
2023-02-11T21:44:53.280Z,8.67
2023-02-11T21:46:25.492Z,8.64
2023-02-11T21:48:25.154Z,8.59
2023-02-11T21:50:00.379Z,8.57
2023-02-11T21:51:32.500Z,8.54
2023-02-11T21:53:06.923Z,8.54
2023-02-11T21:54:39.118Z,8.54
2023-02-11T21:56:22.554Z,8.52
2023-02-11T21:57:55.124Z,8.50
2023-02-11T21:59:33.630Z,8.53
2023-02-11T22:01:28.578Z,8.51
2023-02-11T22:03:00.922Z,8.49
2023-02-11T22:04:33.622Z,8.46
2023-02-11T22:06:21.428Z,8.43
2023-02-11T22:08:49.149Z,8.47
2023-02-11T22:10:33.903Z,8.49
2023-02-11T22:12:11.613Z,8.50
2023-02-11T22:13:46.559Z,8.54
2023-02-11T22:15:18.628Z,8.56
2023-02-11T22:16:50.761Z,8.57
2023-02-11T22:18:23.059Z,8.58
2023-02-11T22:19:57.433Z,8.56
2023-02-11T22:21:29.612Z,8.58
2023-02-11T22:23:01.606Z,8.61
2023-02-11T22:24:36.043Z,8.62
2023-02-11T22:26:17.298Z,8.63
2023-02-11T22:27:49.371Z,8.65
2023-02-11T22:29:21.351Z,8.68
2023-02-11T22:30:57.749Z,8.64
2023-02-11T22:32:29.865Z,8.64
2023-02-11T22:34:06.151Z,8.66
2023-02-11T22:35:40.532Z,8.66
2023-02-11T22:37:14.569Z,8.65
2023-02-11T22:38:47.091Z,8.65
2023-02-11T22:40:21.843Z,8.63
2023-02-11T22:41:56.827Z,8.61
2023-02-11T22:43:28.992Z,8.56
2023-02-11T22:45:03.578Z,8.52
2023-02-11T22:46:36.259Z,8.52
2023-02-11T22:48:08.171Z,8.53
2023-02-11T22:49:41.519Z,8.51
2023-02-11T22:51:21.204Z,8.50
2023-02-11T22:52:53.754Z,8.50
2023-02-11T22:54:25.782Z,8.52
2023-02-11T22:56:02.222Z,8.53
2023-02-11T22:57:34.272Z,8.54
2023-02-11T22:59:08.445Z,8.55
2023-02-11T23:00:41.632Z,8.59
2023-02-11T23:02:15.951Z,8.59
2023-02-11T23:03:48.428Z,8.54
2023-02-11T23:05:20.502Z,8.54
2023-02-11T23:06:52.539Z,8.53
2023-02-11T23:08:25.232Z,8.54
2023-02-11T23:09:57.126Z,8.56
2023-02-11T23:11:30.811Z,8.58
2023-02-11T23:13:06.970Z,8.58
2023-02-11T23:14:39.525Z,8.58
2023-02-11T23:16:14.814Z,8.56
2023-02-11T23:17:49.586Z,8.58
2023-02-11T23:19:21.951Z,8.59
2023-02-11T23:20:54.427Z,8.61
2023-02-11T23:22:26.792Z,8.61
2023-02-11T23:24:03.660Z,8.61
2023-02-11T23:25:35.891Z,8.60
2023-02-11T23:27:08.081Z,8.59
2023-02-11T23:28:40.350Z,8.55
2023-02-11T23:30:13.217Z,8.51
2023-02-11T23:31:46.749Z,8.45
2023-02-11T23:33:19.486Z,8.42
2023-02-11T23:34:52.972Z,8.40
2023-02-11T23:36:25.234Z,8.41
2023-02-11T23:38:00.298Z,8.46
2023-02-11T23:39:32.538Z,8.48
2023-02-11T23:41:05.020Z,8.51
2023-02-11T23:42:37.363Z,8.52
2023-02-11T23:44:10.417Z,8.54
2023-02-11T23:45:42.741Z,8.52
2023-02-11T23:47:16.265Z,8.50
2023-02-11T23:48:49.271Z,8.53
2023-02-11T23:50:21.619Z,8.54
2023-02-11T23:51:53.918Z,8.55
2023-02-11T23:53:26.120Z,8.56
2023-02-11T23:54:58.339Z,8.53
2023-02-11T23:56:30.828Z,8.52
2023-02-11T23:58:04.959Z,8.52
2023-02-11T23:59:37.216Z,8.49
